Rick Husband Amarillo International Airport
KAMA : now visible

Airfield :











YOU CAN JOIN US ON...

 
LOGIN :

Register | Disclaimer

   EN    FR    IT 

 









Legend :    VFR   Marginal VFR   IFR   Intensive IFR   Very Intensive IFR
Visi :
Ceiling :
>= 8 km
>= 3000ft
5 to 8 km
1000 to 3000 ft
1500m to 5 km
500 to 1000 ft
800 to 1500m
200 to 500 ft
< 800m
< 200 ft
Symbols :   Thunderstorms  Fog  Heavy snow  Heavy precipitations  Wind > 20 kt






- Airport Elevation : 3607 ft
- IATA code : AMA


KAMA - Rick Husband Amarillo International

CURRENT METAR :
  • 081353Z 18012KT 10SM CLR 06/03 A3019 RMK AO2 SLP211 T00560033

EXPIRED METARs :
  • 081253Z 19014KT 10SM CLR 06/03 A3019 RMK AO2 SLP207 T00560028
  • 081153Z 19014KT 10SM CLR 05/02 A3019 RMK AO2 SLP204 T00500022 10089 20044 55004

TAF KAMA
Valid from the 08 at 12:00 until the 09 at 12:00 UTC


081120Z 0812/0912 19015KT P6SM SCT300
FM081600 20022G32KT P6SM BKN300
FM090100 18019G28KT P6SM BKN300
KZAB FIR / North America



MET'MAP, your aeronautical weather chart ! - Copyright ORBIFLY December 2007 - Disclaimer

ORBIFLY MET'MAP TEAM :

Programming & Development : Alexandra Zaïnal
Concept & original design : Baudouin d'Aumeries
Assistance for programming : Marc-Olivier Méhu
Technical & hardware support : Manuel Goepfert

Contact : metmap@orbifly.com




SOURCES & CREDITS :

   NOAA       Earth
Advisory